sensor_id;sensor_type;location;lat;lon;timestamp;temperature;humidity
65203;HTU21D;51788;45.124;38.966;2022-12-29T00:02:02;4.63;86.00
65203;HTU21D;51788;45.124;38.966;2022-12-29T00:04:28;4.63;86.04
65203;HTU21D;51788;45.124;38.966;2022-12-29T00:06:54;4.61;86.12
65203;HTU21D;51788;45.124;38.966;2022-12-29T00:09:20;4.59;86.19
65203;HTU21D;51788;45.124;38.966;2022-12-29T00:11:46;4.53;86.29
65203;HTU21D;51788;45.124;38.966;2022-12-29T00:14:12;4.52;86.33
65203;HTU21D;51788;45.124;38.966;2022-12-29T00:16:57;4.53;86.37
65203;HTU21D;51788;45.124;38.966;2022-12-29T00:19:23;4.52;86.32
65203;HTU21D;51788;45.124;38.966;2022-12-29T00:22:13;4.48;86.29
65203;HTU21D;51788;45.124;38.966;2022-12-29T00:24:57;4.38;86.42
65203;HTU21D;51788;45.124;38.966;2022-12-29T00:27:42;4.30;86.60
65203;HTU21D;51788;45.124;38.966;2022-12-29T00:30:26;4.24;86.73
65203;HTU21D;51788;45.124;38.966;2022-12-29T00:33:14;4.18;86.80
65203;HTU21D;51788;45.124;38.966;2022-12-29T00:36:06;4.18;86.87
65203;HTU21D;51788;45.124;38.966;2022-12-29T00:38:37;4.15;86.83
65203;HTU21D;51788;45.124;38.966;2022-12-29T00:41:24;4.08;86.90
65203;HTU21D;51788;45.124;38.966;2022-12-29T00:44:09;4.03;86.99
65203;HTU21D;51788;45.124;38.966;2022-12-29T00:46:37;4.02;87.01
65203;HTU21D;51788;45.124;38.966;2022-12-29T00:49:05;4.00;87.03
65203;HTU21D;51788;45.124;38.966;2022-12-29T00:51:50;3.97;87.01
65203;HTU21D;51788;45.124;38.966;2022-12-29T00:54:17;3.95;87.07
65203;HTU21D;51788;45.124;38.966;2022-12-29T00:56:46;3.92;87.04
65203;HTU21D;51788;45.124;38.966;2022-12-29T00:59:13;3.87;87.09
65203;HTU21D;51788;45.124;38.966;2022-12-29T01:01:39;3.87;87.15
65203;HTU21D;51788;45.124;38.966;2022-12-29T01:04:06;3.85;87.12
65203;HTU21D;51788;45.124;38.966;2022-12-29T01:06:33;3.84;87.13
65203;HTU21D;51788;45.124;38.966;2022-12-29T01:08:59;3.83;87.15
65203;HTU21D;51788;45.124;38.966;2022-12-29T01:11:44;3.83;87.15
65203;HTU21D;51788;45.124;38.966;2022-12-29T01:14:10;3.80;87.15
65203;HTU21D;51788;45.124;38.966;2022-12-29T01:16:36;3.80;87.18
65203;HTU21D;51788;45.124;38.966;2022-12-29T01:19:03;3.78;87.17
65203;HTU21D;51788;45.124;38.966;2022-12-29T01:21:29;3.74;87.28
65203;HTU21D;51788;45.124;38.966;2022-12-29T01:23:55;3.74;87.27
65203;HTU21D;51788;45.124;38.966;2022-12-29T01:26:22;3.74;87.30
65203;HTU21D;51788;45.124;38.966;2022-12-29T01:28:51;3.72;87.25
65203;HTU21D;51788;45.124;38.966;2022-12-29T01:31:17;3.73;87.25
65203;HTU21D;51788;45.124;38.966;2022-12-29T01:33:43;3.72;87.25
65203;HTU21D;51788;45.124;38.966;2022-12-29T01:36:12;3.71;87.25
65203;HTU21D;51788;45.124;38.966;2022-12-29T01:38:39;3.71;87.25
65203;HTU21D;51788;45.124;38.966;2022-12-29T01:41:06;3.68;87.29
65203;HTU21D;51788;45.124;38.966;2022-12-29T01:48:53;3.63;87.35
65203;HTU21D;51788;45.124;38.966;2022-12-29T01:51:22;3.63;87.39
65203;HTU21D;51788;45.124;38.966;2022-12-29T01:53:49;3.59;87.33
65203;HTU21D;51788;45.124;38.966;2022-12-29T01:56:17;3.58;87.40
65203;HTU21D;51788;45.124;38.966;2022-12-29T01:58:47;3.58;87.38
65203;HTU21D;51788;45.124;38.966;2022-12-29T02:01:18;3.58;87.35
65203;HTU21D;51788;45.124;38.966;2022-12-29T02:03:44;3.57;87.35
65203;HTU21D;51788;45.124;38.966;2022-12-29T02:08:40;3.56;87.33
65203;HTU21D;51788;45.124;38.966;2022-12-29T02:11:07;3.54;87.30
65203;HTU21D;51788;45.124;38.966;2022-12-29T02:13:34;3.50;87.32
65203;HTU21D;51788;45.124;38.966;2022-12-29T02:25:05;3.39;87.32
65203;HTU21D;51788;45.124;38.966;2022-12-29T02:36:12;3.19;87.45
65203;HTU21D;51788;45.124;38.966;2022-12-29T02:39:04;3.18;87.49
65203;HTU21D;51788;45.124;38.966;2022-12-29T02:41:52;3.10;87.51
65203;HTU21D;51788;45.124;38.966;2022-12-29T02:44:35;3.03;87.52
65203;HTU21D;51788;45.124;38.966;2022-12-29T02:47:22;3.04;87.56
65203;HTU21D;51788;45.124;38.966;2022-12-29T02:49:59;3.01;87.50
65203;HTU21D;51788;45.124;38.966;2022-12-29T02:53:06;3.00;87.52
65203;HTU21D;51788;45.124;38.966;2022-12-29T02:55:33;2.96;87.44
65203;HTU21D;51788;45.124;38.966;2022-12-29T03:06:34;2.96;87.44
65203;HTU21D;51788;45.124;38.966;2022-12-29T03:11:41;2.89;87.49
65203;HTU21D;51788;45.124;38.966;2022-12-29T03:17:55;2.95;87.38
65203;HTU21D;51788;45.124;38.966;2022-12-29T03:20:26;2.95;87.32
65203;HTU21D;51788;45.124;38.966;2022-12-29T03:23:02;2.94;87.33
65203;HTU21D;51788;45.124;38.966;2022-12-29T03:25:36;2.91;87.34
65203;HTU21D;51788;45.124;38.966;2022-12-29T03:28:12;2.91;87.37
65203;HTU21D;51788;45.124;38.966;2022-12-29T03:30:43;2.89;87.32
65203;HTU21D;51788;45.124;38.966;2022-12-29T03:33:16;2.87;87.35
65203;HTU21D;51788;45.124;38.966;2022-12-29T03:35:44;2.87;87.37
65203;HTU21D;51788;45.124;38.966;2022-12-29T03:40:49;2.87;87.32
65203;HTU21D;51788;45.124;38.966;2022-12-29T03:43:17;2.86;87.25
65203;HTU21D;51788;45.124;38.966;2022-12-29T03:45:44;2.84;87.25
65203;HTU21D;51788;45.124;38.966;2022-12-29T03:48:11;2.85;87.20
65203;HTU21D;51788;45.124;38.966;2022-12-29T03:50:40;2.84;87.18
65203;HTU21D;51788;45.124;38.966;2022-12-29T03:53:06;2.87;87.13
65203;HTU21D;51788;45.124;38.966;2022-12-29T03:55:32;2.88;87.12
65203;HTU21D;51788;45.124;38.966;2022-12-29T03:57:58;2.88;87.03
65203;HTU21D;51788;45.124;38.966;2022-12-29T04:00:59;2.85;87.01
65203;HTU21D;51788;45.124;38.966;2022-12-29T04:03:26;2.87;87.00
65203;HTU21D;51788;45.124;38.966;2022-12-29T04:05:52;2.87;86.93
65203;HTU21D;51788;45.124;38.966;2022-12-29T04:08:18;2.86;86.90
65203;HTU21D;51788;45.124;38.966;2022-12-29T04:10:44;2.87;86.90
65203;HTU21D;51788;45.124;38.966;2022-12-29T04:13:12;2.87;86.87
65203;HTU21D;51788;45.124;38.966;2022-12-29T04:15:38;2.84;86.84
65203;HTU21D;51788;45.124;38.966;2022-12-29T04:18:04;2.82;86.88
65203;HTU21D;51788;45.124;38.966;2022-12-29T04:20:32;2.82;86.84
65203;HTU21D;51788;45.124;38.966;2022-12-29T04:23:16;2.82;86.82
65203;HTU21D;51788;45.124;38.966;2022-12-29T04:25:45;2.82;86.79
65203;HTU21D;51788;45.124;38.966;2022-12-29T04:28:14;2.81;86.78
65203;HTU21D;51788;45.124;38.966;2022-12-29T04:30:58;2.83;86.74
65203;HTU21D;51788;45.124;38.966;2022-12-29T04:33:36;2.78;86.68
65203;HTU21D;51788;45.124;38.966;2022-12-29T04:36:02;2.76;86.71
65203;HTU21D;51788;45.124;38.966;2022-12-29T04:38:28;2.78;86.73
65203;HTU21D;51788;45.124;38.966;2022-12-29T04:40:54;2.80;86.67
65203;HTU21D;51788;45.124;38.966;2022-12-29T04:43:22;2.81;86.64
65203;HTU21D;51788;45.124;38.966;2022-12-29T04:46:03;2.75;86.59
65203;HTU21D;51788;45.124;38.966;2022-12-29T04:48:48;2.68;86.64
65203;HTU21D;51788;45.124;38.966;2022-12-29T04:51:26;2.61;86.75
65203;HTU21D;51788;45.124;38.966;2022-12-29T04:53:52;2.56;86.80
65203;HTU21D;51788;45.124;38.966;2022-12-29T04:56:18;2.52;86.85
65203;HTU21D;51788;45.124;38.966;2022-12-29T04:58:44;2.50;86.83
65203;HTU21D;51788;45.124;38.966;2022-12-29T05:01:10;2.47;86.81
65203;HTU21D;51788;45.124;38.966;2022-12-29T05:03:36;2.45;86.81
65203;HTU21D;51788;45.124;38.966;2022-12-29T05:06:02;2.49;86.81
65203;HTU21D;51788;45.124;38.966;2022-12-29T05:08:28;2.53;86.66
65203;HTU21D;51788;45.124;38.966;2022-12-29T05:10:57;2.52;86.60
65203;HTU21D;51788;45.124;38.966;2022-12-29T05:13:23;2.50;86.61
65203;HTU21D;51788;45.124;38.966;2022-12-29T05:15:51;2.51;86.57
65203;HTU21D;51788;45.124;38.966;2022-12-29T05:18:18;2.50;86.53
65203;HTU21D;51788;45.124;38.966;2022-12-29T05:20:45;2.54;86.52
65203;HTU21D;51788;45.124;38.966;2022-12-29T05:23:12;2.57;86.43
65203;HTU21D;51788;45.124;38.966;2022-12-29T05:25:38;2.60;86.39
65203;HTU21D;51788;45.124;38.966;2022-12-29T05:28:20;2.60;86.33
65203;HTU21D;51788;45.124;38.966;2022-12-29T05:30:53;2.60;86.39
65203;HTU21D;51788;45.124;38.966;2022-12-29T05:33:19;2.65;86.40
65203;HTU21D;51788;45.124;38.966;2022-12-29T05:35:47;2.65;86.37
65203;HTU21D;51788;45.124;38.966;2022-12-29T05:38:14;2.71;86.46
65203;HTU21D;51788;45.124;38.966;2022-12-29T05:40:41;2.82;86.35
65203;HTU21D;51788;45.124;38.966;2022-12-29T05:43:21;2.85;86.25
65203;HTU21D;51788;45.124;38.966;2022-12-29T05:46:13;2.89;86.25
65203;HTU21D;51788;45.124;38.966;2022-12-29T05:49:06;2.91;86.17
65203;HTU21D;51788;45.124;38.966;2022-12-29T05:51:54;2.89;86.25
65203;HTU21D;51788;45.124;38.966;2022-12-29T05:54:21;2.97;86.25
65203;HTU21D;51788;45.124;38.966;2022-12-29T05:56:48;3.01;86.21
65203;HTU21D;51788;45.124;38.966;2022-12-29T05:59:14;3.05;86.24
65203;HTU21D;51788;45.124;38.966;2022-12-29T06:01:41;3.12;86.17
65203;HTU21D;51788;45.124;38.966;2022-12-29T06:04:07;3.19;86.03
65203;HTU21D;51788;45.124;38.966;2022-12-29T06:06:33;3.20;85.96
65203;HTU21D;51788;45.124;38.966;2022-12-29T06:08:59;3.25;85.96
65203;HTU21D;51788;45.124;38.966;2022-12-29T06:11:25;3.30;85.87
65203;HTU21D;51788;45.124;38.966;2022-12-29T06:13:55;3.38;85.80
65203;HTU21D;51788;45.124;38.966;2022-12-29T06:16:22;3.44;85.72
65203;HTU21D;51788;45.124;38.966;2022-12-29T06:18:52;3.52;85.64
65203;HTU21D;51788;45.124;38.966;2022-12-29T06:21:18;3.57;85.58
65203;HTU21D;51788;45.124;38.966;2022-12-29T06:23:45;3.61;85.58
65203;HTU21D;51788;45.124;38.966;2022-12-29T06:26:11;3.67;85.59
65203;HTU21D;51788;45.124;38.966;2022-12-29T06:28:37;3.77;85.53
65203;HTU21D;51788;45.124;38.966;2022-12-29T06:31:03;3.85;85.46
65203;HTU21D;51788;45.124;38.966;2022-12-29T06:33:30;3.91;85.39
65203;HTU21D;51788;45.124;38.966;2022-12-29T06:35:56;3.97;85.30
65203;HTU21D;51788;45.124;38.966;2022-12-29T06:38:22;4.01;85.22
65203;HTU21D;51788;45.124;38.966;2022-12-29T06:40:48;4.05;85.16
65203;HTU21D;51788;45.124;38.966;2022-12-29T06:43:33;4.09;85.08
65203;HTU21D;51788;45.124;38.966;2022-12-29T06:46:07;4.17;85.00
65203;HTU21D;51788;45.124;38.966;2022-12-29T06:48:33;4.24;84.93
65203;HTU21D;51788;45.124;38.966;2022-12-29T06:50:59;4.28;84.80
65203;HTU21D;51788;45.124;38.966;2022-12-29T06:53:25;4.33;84.77
65203;HTU21D;51788;45.124;38.966;2022-12-29T06:55:51;4.43;84.66
65203;HTU21D;51788;45.124;38.966;2022-12-29T06:58:18;4.50;84.58
65203;HTU21D;51788;45.124;38.966;2022-12-29T07:00:44;4.60;84.47
65203;HTU21D;51788;45.124;38.966;2022-12-29T07:03:10;4.67;84.28
65203;HTU21D;51788;45.124;38.966;2022-12-29T07:05:36;4.73;84.16
65203;HTU21D;51788;45.124;38.966;2022-12-29T07:08:01;4.81;84.09
65203;HTU21D;51788;45.124;38.966;2022-12-29T07:10:27;4.87;84.00
65203;HTU21D;51788;45.124;38.966;2022-12-29T07:12:53;4.93;83.80
65203;HTU21D;51788;45.124;38.966;2022-12-29T07:15:20;4.96;83.64
65203;HTU21D;51788;45.124;38.966;2022-12-29T07:17:45;4.98;83.57
65203;HTU21D;51788;45.124;38.966;2022-12-29T07:20:11;5.02;83.45
65203;HTU21D;51788;45.124;38.966;2022-12-29T07:22:37;5.03;83.40
65203;HTU21D;51788;45.124;38.966;2022-12-29T07:25:04;5.05;83.29
65203;HTU21D;51788;45.124;38.966;2022-12-29T07:27:30;5.11;83.36
65203;HTU21D;51788;45.124;38.966;2022-12-29T07:29:56;5.19;83.17
65203;HTU21D;51788;45.124;38.966;2022-12-29T07:32:22;5.26;83.06
65203;HTU21D;51788;45.124;38.966;2022-12-29T07:34:48;5.32;83.00
65203;HTU21D;51788;45.124;38.966;2022-12-29T07:37:17;5.38;83.00
65203;HTU21D;51788;45.124;38.966;2022-12-29T07:39:43;5.42;82.97
65203;HTU21D;51788;45.124;38.966;2022-12-29T07:42:09;5.45;82.85
65203;HTU21D;51788;45.124;38.966;2022-12-29T07:44:43;5.43;82.75
65203;HTU21D;51788;45.124;38.966;2022-12-29T07:47:17;5.49;82.76
65203;HTU21D;51788;45.124;38.966;2022-12-29T07:49:43;5.55;82.69
65203;HTU21D;51788;45.124;38.966;2022-12-29T07:52:09;5.59;82.41
65203;HTU21D;51788;45.124;38.966;2022-12-29T07:54:35;5.65;82.40
65203;HTU21D;51788;45.124;38.966;2022-12-29T07:57:02;5.68;82.06
65203;HTU21D;51788;45.124;38.966;2022-12-29T07:59:28;5.72;82.17
65203;HTU21D;51788;45.124;38.966;2022-12-29T08:01:54;5.78;81.98
65203;HTU21D;51788;45.124;38.966;2022-12-29T08:04:20;5.83;82.00
65203;HTU21D;51788;45.124;38.966;2022-12-29T08:06:46;5.91;81.62
65203;HTU21D;51788;45.124;38.966;2022-12-29T08:09:12;5.92;81.52
65203;HTU21D;51788;45.124;38.966;2022-12-29T08:11:38;5.96;81.52
65203;HTU21D;51788;45.124;38.966;2022-12-29T08:14:06;6.01;81.46
65203;HTU21D;51788;45.124;38.966;2022-12-29T08:16:32;6.12;81.41
65203;HTU21D;51788;45.124;38.966;2022-12-29T08:18:58;6.17;80.95
65203;HTU21D;51788;45.124;38.966;2022-12-29T08:21:25;6.19;80.88
65203;HTU21D;51788;45.124;38.966;2022-12-29T08:23:52;6.20;80.86
65203;HTU21D;51788;45.124;38.966;2022-12-29T08:26:18;6.21;80.97
65203;HTU21D;51788;45.124;38.966;2022-12-29T08:28:44;6.21;80.75
65203;HTU21D;51788;45.124;38.966;2022-12-29T08:31:10;6.21;80.65
65203;HTU21D;51788;45.124;38.966;2022-12-29T08:33:36;6.22;80.66
65203;HTU21D;51788;45.124;38.966;2022-12-29T08:36:04;6.22;80.69
65203;HTU21D;51788;45.124;38.966;2022-12-29T08:38:31;6.19;80.57
65203;HTU21D;51788;45.124;38.966;2022-12-29T08:40:58;6.16;80.62
65203;HTU21D;51788;45.124;38.966;2022-12-29T08:43:25;6.16;80.33
65203;HTU21D;51788;45.124;38.966;2022-12-29T08:45:51;6.15;80.28
65203;HTU21D;51788;45.124;38.966;2022-12-29T08:48:17;6.14;80.29
65203;HTU21D;51788;45.124;38.966;2022-12-29T08:50:47;6.16;80.15
65203;HTU21D;51788;45.124;38.966;2022-12-29T08:53:13;6.17;79.75
65203;HTU21D;51788;45.124;38.966;2022-12-29T08:55:40;6.22;79.51
65203;HTU21D;51788;45.124;38.966;2022-12-29T08:58:06;6.26;79.45
65203;HTU21D;51788;45.124;38.966;2022-12-29T09:00:35;6.28;79.24
65203;HTU21D;51788;45.124;38.966;2022-12-29T09:03:01;6.31;78.56
65203;HTU21D;51788;45.124;38.966;2022-12-29T09:05:27;6.36;78.42
65203;HTU21D;51788;45.124;38.966;2022-12-29T09:07:53;6.34;78.30
65203;HTU21D;51788;45.124;38.966;2022-12-29T09:10:19;6.31;78.27
65203;HTU21D;51788;45.124;38.966;2022-12-29T09:12:45;6.34;78.01
65203;HTU21D;51788;45.124;38.966;2022-12-29T09:15:11;6.36;77.65
65203;HTU21D;51788;45.124;38.966;2022-12-29T09:17:37;6.37;77.92
65203;HTU21D;51788;45.124;38.966;2022-12-29T09:20:06;6.35;77.82
65203;HTU21D;51788;45.124;38.966;2022-12-29T09:22:34;6.37;77.71
65203;HTU21D;51788;45.124;38.966;2022-12-29T09:25:01;6.42;77.15
65203;HTU21D;51788;45.124;38.966;2022-12-29T09:27:27;6.50;77.08
65203;HTU21D;51788;45.124;38.966;2022-12-29T09:29:53;6.57;76.98
65203;HTU21D;51788;45.124;38.966;2022-12-29T09:32:19;6.67;76.35
65203;HTU21D;51788;45.124;38.966;2022-12-29T09:34:45;6.75;75.67
65203;HTU21D;51788;45.124;38.966;2022-12-29T09:37:11;6.80;74.92
65203;HTU21D;51788;45.124;38.966;2022-12-29T09:39:37;6.84;74.51
65203;HTU21D;51788;45.124;38.966;2022-12-29T09:45:20;6.91;74.28
65203;HTU21D;51788;45.124;38.966;2022-12-29T09:47:48;6.91;74.54
65203;HTU21D;51788;45.124;38.966;2022-12-29T09:50:30;6.96;73.83
65203;HTU21D;51788;45.124;38.966;2022-12-29T09:56:01;7.00;73.72
65203;HTU21D;51788;45.124;38.966;2022-12-29T09:58:45;7.00;73.48
65203;HTU21D;51788;45.124;38.966;2022-12-29T10:01:36;6.98;72.81
65203;HTU21D;51788;45.124;38.966;2022-12-29T10:04:04;6.99;72.06
65203;HTU21D;51788;45.124;38.966;2022-12-29T10:11:56;7.02;72.72
65203;HTU21D;51788;45.124;38.966;2022-12-29T10:20:55;7.82;70.39
65203;HTU21D;51788;45.124;38.966;2022-12-29T10:23:30;7.77;71.07
65203;HTU21D;51788;45.124;38.966;2022-12-29T10:25:59;7.72;69.86
65203;HTU21D;51788;45.124;38.966;2022-12-29T10:31:41;7.61;70.52
65203;HTU21D;51788;45.124;38.966;2022-12-29T10:36:53;7.65;70.32
65203;HTU21D;51788;45.124;38.966;2022-12-29T10:39:27;7.64;70.55
65203;HTU21D;51788;45.124;38.966;2022-12-29T10:44:50;7.70;70.32
65203;HTU21D;51788;45.124;38.966;2022-12-29T10:47:20;7.76;70.28
65203;HTU21D;51788;45.124;38.966;2022-12-29T10:49:47;7.91;70.09
65203;HTU21D;51788;45.124;38.966;2022-12-29T10:52:16;8.08;68.49
65203;HTU21D;51788;45.124;38.966;2022-12-29T10:54:51;8.14;68.03
65203;HTU21D;51788;45.124;38.966;2022-12-29T10:57:31;8.15;67.63
65203;HTU21D;51788;45.124;38.966;2022-12-29T10:59:58;8.13;67.43
65203;HTU21D;51788;45.124;38.966;2022-12-29T11:05:46;8.15;67.01
65203;HTU21D;51788;45.124;38.966;2022-12-29T11:08:22;8.12;67.52
65203;HTU21D;51788;45.124;38.966;2022-12-29T11:11:02;8.13;66.82
65203;HTU21D;51788;45.124;38.966;2022-12-29T11:13:34;8.07;67.28
65203;HTU21D;51788;45.124;38.966;2022-12-29T11:16:00;8.12;67.44
65203;HTU21D;51788;45.124;38.966;2022-12-29T11:18:38;8.17;66.82
65203;HTU21D;51788;45.124;38.966;2022-12-29T11:21:33;8.15;67.10
65203;HTU21D;51788;45.124;38.966;2022-12-29T11:24:04;8.05;67.15
65203;HTU21D;51788;45.124;38.966;2022-12-29T11:26:33;8.01;67.61
65203;HTU21D;51788;45.124;38.966;2022-12-29T11:29:21;7.88;67.54
65203;HTU21D;51788;45.124;38.966;2022-12-29T11:31:53;7.71;68.07
65203;HTU21D;51788;45.124;38.966;2022-12-29T11:36:47;7.65;68.26
65203;HTU21D;51788;45.124;38.966;2022-12-29T11:39:35;7.63;68.20
65203;HTU21D;51788;45.124;38.966;2022-12-29T11:42:03;7.56;68.10
65203;HTU21D;51788;45.124;38.966;2022-12-29T11:44:35;7.52;68.46
65203;HTU21D;51788;45.124;38.966;2022-12-29T11:47:03;7.50;68.53
65203;HTU21D;51788;45.124;38.966;2022-12-29T11:49:29;7.53;68.26
65203;HTU21D;51788;45.124;38.966;2022-12-29T11:51:55;7.47;68.20
65203;HTU21D;51788;45.124;38.966;2022-12-29T11:54:40;7.42;68.11
65203;HTU21D;51788;45.124;38.966;2022-12-29T11:57:17;7.41;68.27
65203;HTU21D;51788;45.124;38.966;2022-12-29T11:59:55;7.41;68.42
65203;HTU21D;51788;45.124;38.966;2022-12-29T12:08:12;7.35;68.19
65203;HTU21D;51788;45.124;38.966;2022-12-29T12:10:44;7.33;68.39
65203;HTU21D;51788;45.124;38.966;2022-12-29T12:16:43;7.34;68.19
65203;HTU21D;51788;45.124;38.966;2022-12-29T12:21:58;7.22;68.57
65203;HTU21D;51788;45.124;38.966;2022-12-29T12:27:41;7.12;68.69
65203;HTU21D;51788;45.124;38.966;2022-12-29T12:30:15;7.10;68.61
65203;HTU21D;51788;45.124;38.966;2022-12-29T12:33:00;7.05;68.82
65203;HTU21D;51788;45.124;38.966;2022-12-29T12:43:53;6.99;69.20
65203;HTU21D;51788;45.124;38.966;2022-12-29T12:55:28;6.87;69.52
65203;HTU21D;51788;45.124;38.966;2022-12-29T13:09:25;6.93;69.55
65203;HTU21D;51788;45.124;38.966;2022-12-29T13:12:01;6.96;69.59
65203;HTU21D;51788;45.124;38.966;2022-12-29T13:15:11;6.96;69.50
65203;HTU21D;51788;45.124;38.966;2022-12-29T13:25:35;6.85;69.88
65203;HTU21D;51788;45.124;38.966;2022-12-29T13:31:00;6.80;69.98
65203;HTU21D;51788;45.124;38.966;2022-12-29T13:36:26;6.68;70.27
65203;HTU21D;51788;45.124;38.966;2022-12-29T13:39:02;6.61;70.39
65203;HTU21D;51788;45.124;38.966;2022-12-29T13:41:34;6.56;70.61
65203;HTU21D;51788;45.124;38.966;2022-12-29T13:44:03;6.50;70.71
65203;HTU21D;51788;45.124;38.966;2022-12-29T13:46:35;6.45;70.80
65203;HTU21D;51788;45.124;38.966;2022-12-29T13:49:21;6.42;70.85
65203;HTU21D;51788;45.124;38.966;2022-12-29T13:57:13;6.48;70.76
65203;HTU21D;51788;45.124;38.966;2022-12-29T14:08:14;6.36;71.13
65203;HTU21D;51788;45.124;38.966;2022-12-29T14:10:50;6.35;71.21
65203;HTU21D;51788;45.124;38.966;2022-12-29T14:13:17;6.35;71.25
65203;HTU21D;51788;45.124;38.966;2022-12-29T14:15:50;6.35;71.28
65203;HTU21D;51788;45.124;38.966;2022-12-29T14:18:22;6.36;71.29
65203;HTU21D;51788;45.124;38.966;2022-12-29T14:23:39;6.22;71.64
65203;HTU21D;51788;45.124;38.966;2022-12-29T14:28:39;6.17;71.87
65203;HTU21D;51788;45.124;38.966;2022-12-29T14:34:14;6.17;71.87
65203;HTU21D;51788;45.124;38.966;2022-12-29T14:36:36;6.17;71.86
65203;HTU21D;51788;45.124;38.966;2022-12-29T14:39:04;6.14;71.87
65203;HTU21D;51788;45.124;38.966;2022-12-29T14:42:06;6.10;71.99
65203;HTU21D;51788;45.124;38.966;2022-12-29T14:44:33;6.08;72.03
65203;HTU21D;51788;45.124;38.966;2022-12-29T14:47:07;6.04;71.88
65203;HTU21D;51788;45.124;38.966;2022-12-29T14:49:41;6.00;71.84
65203;HTU21D;51788;45.124;38.966;2022-12-29T14:52:26;6.01;71.64
65203;HTU21D;51788;45.124;38.966;2022-12-29T14:55:28;6.04;71.61
65203;HTU21D;51788;45.124;38.966;2022-12-29T14:57:51;6.05;71.41
65203;HTU21D;51788;45.124;38.966;2022-12-29T15:00:26;6.05;71.38
65203;HTU21D;51788;45.124;38.966;2022-12-29T15:05:46;6.02;71.13
65203;HTU21D;51788;45.124;38.966;2022-12-29T15:08:18;6.02;71.37
65203;HTU21D;51788;45.124;38.966;2022-12-29T15:10:52;6.05;71.41
65203;HTU21D;51788;45.124;38.966;2022-12-29T15:13:24;6.07;71.45
65203;HTU21D;51788;45.124;38.966;2022-12-29T15:15:51;6.10;71.48
65203;HTU21D;51788;45.124;38.966;2022-12-29T15:18:26;6.14;71.45
65203;HTU21D;51788;45.124;38.966;2022-12-29T15:20:55;6.14;71.35
65203;HTU21D;51788;45.124;38.966;2022-12-29T15:23:23;6.14;71.46
65203;HTU21D;51788;45.124;38.966;2022-12-29T15:26:09;6.13;71.33
65203;HTU21D;51788;45.124;38.966;2022-12-29T15:31:11;6.11;71.35
65203;HTU21D;51788;45.124;38.966;2022-12-29T15:33:39;6.11;71.35
65203;HTU21D;51788;45.124;38.966;2022-12-29T15:36:12;6.12;71.31
65203;HTU21D;51788;45.124;38.966;2022-12-29T15:38:39;6.10;71.38
65203;HTU21D;51788;45.124;38.966;2022-12-29T15:44:09;6.08;71.62
65203;HTU21D;51788;45.124;38.966;2022-12-29T15:46:39;6.06;71.71
65203;HTU21D;51788;45.124;38.966;2022-12-29T15:49:07;6.04;71.80
65203;HTU21D;51788;45.124;38.966;2022-12-29T15:51:37;6.00;71.88
65203;HTU21D;51788;45.124;38.966;2022-12-29T15:54:04;5.98;71.98
65203;HTU21D;51788;45.124;38.966;2022-12-29T15:56:33;5.97;72.02
65203;HTU21D;51788;45.124;38.966;2022-12-29T15:59:00;5.96;72.07
65203;HTU21D;51788;45.124;38.966;2022-12-29T16:01:34;5.93;72.09
65203;HTU21D;51788;45.124;38.966;2022-12-29T16:04:05;5.92;72.13
65203;HTU21D;51788;45.124;38.966;2022-12-29T16:06:34;5.90;72.11
65203;HTU21D;51788;45.124;38.966;2022-12-29T16:11:41;5.86;72.19
65203;HTU21D;51788;45.124;38.966;2022-12-29T16:14:22;5.84;72.25
65203;HTU21D;51788;45.124;38.966;2022-12-29T16:16:50;5.83;72.28
65203;HTU21D;51788;45.124;38.966;2022-12-29T16:22:34;5.81;72.42
65203;HTU21D;51788;45.124;38.966;2022-12-29T16:25:04;5.83;72.41
65203;HTU21D;51788;45.124;38.966;2022-12-29T16:27:40;5.90;72.30
65203;HTU21D;51788;45.124;38.966;2022-12-29T16:30:32;5.95;72.13
65203;HTU21D;51788;45.124;38.966;2022-12-29T16:33:02;5.95;72.12
65203;HTU21D;51788;45.124;38.966;2022-12-29T16:38:31;5.98;71.93
65203;HTU21D;51788;45.124;38.966;2022-12-29T16:41:00;5.97;71.95
65203;HTU21D;51788;45.124;38.966;2022-12-29T16:43:30;5.98;71.90
65203;HTU21D;51788;45.124;38.966;2022-12-29T16:53:51;6.04;71.74
65203;HTU21D;51788;45.124;38.966;2022-12-29T16:56:20;6.05;71.59
65203;HTU21D;51788;45.124;38.966;2022-12-29T16:58:50;6.06;71.48
65203;HTU21D;51788;45.124;38.966;2022-12-29T17:01:19;6.08;71.42
65203;HTU21D;51788;45.124;38.966;2022-12-29T17:03:58;6.08;71.37
65203;HTU21D;51788;45.124;38.966;2022-12-29T17:06:25;6.06;71.40
65203;HTU21D;51788;45.124;38.966;2022-12-29T17:08:51;6.02;71.47
65203;HTU21D;51788;45.124;38.966;2022-12-29T17:11:27;6.00;71.51
65203;HTU21D;51788;45.124;38.966;2022-12-29T17:14:20;6.00;71.52
65203;HTU21D;51788;45.124;38.966;2022-12-29T17:16:47;6.00;71.53
65203;HTU21D;51788;45.124;38.966;2022-12-29T17:19:19;6.02;71.50
65203;HTU21D;51788;45.124;38.966;2022-12-29T17:21:46;6.06;71.52
65203;HTU21D;51788;45.124;38.966;2022-12-29T17:24:16;6.09;71.51
65203;HTU21D;51788;45.124;38.966;2022-12-29T17:26:46;6.11;71.54
65203;HTU21D;51788;45.124;38.966;2022-12-29T17:29:35;6.14;71.52
65203;HTU21D;51788;45.124;38.966;2022-12-29T17:32:02;6.19;71.43
65203;HTU21D;51788;45.124;38.966;2022-12-29T17:34:29;6.23;71.37
65203;HTU21D;51788;45.124;38.966;2022-12-29T17:36:55;6.25;71.26
65203;HTU21D;51788;45.124;38.966;2022-12-29T17:39:21;6.27;71.23
65203;HTU21D;51788;45.124;38.966;2022-12-29T17:41:47;6.31;71.16
65203;HTU21D;51788;45.124;38.966;2022-12-29T17:44:16;6.36;71.10
65203;HTU21D;51788;45.124;38.966;2022-12-29T17:46:47;6.40;71.05
65203;HTU21D;51788;45.124;38.966;2022-12-29T17:49:15;6.45;70.94
65203;HTU21D;51788;45.124;38.966;2022-12-29T17:51:42;6.49;70.94
65203;HTU21D;51788;45.124;38.966;2022-12-29T17:54:28;6.56;70.91
65203;HTU21D;51788;45.124;38.966;2022-12-29T17:56:54;6.59;70.93
65203;HTU21D;51788;45.124;38.966;2022-12-29T17:59:20;6.60;70.84
65203;HTU21D;51788;45.124;38.966;2022-12-29T18:01:47;6.59;70.81
65203;HTU21D;51788;45.124;38.966;2022-12-29T18:04:15;6.58;70.74
65203;HTU21D;51788;45.124;38.966;2022-12-29T18:06:43;6.59;70.64
65203;HTU21D;51788;45.124;38.966;2022-12-29T18:09:09;6.61;70.61
65203;HTU21D;51788;45.124;38.966;2022-12-29T18:11:38;6.61;70.61
65203;HTU21D;51788;45.124;38.966;2022-12-29T18:14:14;6.63;70.57
65203;HTU21D;51788;45.124;38.966;2022-12-29T18:16:40;6.66;70.57
65203;HTU21D;51788;45.124;38.966;2022-12-29T18:19:07;6.70;70.49
65203;HTU21D;51788;45.124;38.966;2022-12-29T18:21:34;6.71;70.44
65203;HTU21D;51788;45.124;38.966;2022-12-29T18:24:01;6.73;70.39
65203;HTU21D;51788;45.124;38.966;2022-12-29T18:26:28;6.75;70.33
65203;HTU21D;51788;45.124;38.966;2022-12-29T18:28:57;6.76;70.35
65203;HTU21D;51788;45.124;38.966;2022-12-29T18:31:26;6.78;70.32
65203;HTU21D;51788;45.124;38.966;2022-12-29T18:33:53;6.79;70.32
65203;HTU21D;51788;45.124;38.966;2022-12-29T18:36:20;6.80;70.33
65203;HTU21D;51788;45.124;38.966;2022-12-29T18:38:46;6.83;70.28